Hempstead, Texas
Current Conditions -  °F | °C
As of 8:35 AM on Friday 28 Nov 2014 (Local Time) from K11R Reporting Station
Clear Clear  
Wind Chill: 47°   Ceiling: Unl
Heat Index: 49°   Visibility: 10mi
Dew Point: 44°   Wind: 5mph
Humidity: 83%   Direction: 150°SSE
Pressure: 30.35"   Gusts: NA
Location:  30.1°N, 96.08°W
Report Text: K11R 281435Z AUTO 15004KT 10SM CLR 10/07 A3035 RMK AO2 T00950068
Loading
Personal Weather Stations






























Interactive Weather Map New forecast layout! Learn more

10-Day Weather Forecast

Advertisements
Track Severe Weather on mobile